CSUN Campus Station - National Weather Service Data Page - PST Time




                Date      RH     Dew  Seasonal     Current   Max Air   Min Air    Wind    Wind    Wind    Gust     Bar    Rain
                Time       %   Point      Rain    Air Temp     Since     Since   Speed    Gust     Dir     Dir   Press   Total
                               Deg F    Inches       Deg F  Midnight  Midnight     MPH     MPH                      mb  Inches
------------------------------------------------------------------------------------------------------------------------------
    02/15/2017 00:00      78    47.1     16.30        53.2      76.8      47.7       2       4      42      33    1018    0.00
    02/15/2017 00:10      78    45.8     16.30        52.8      53.5      52.1       0       1     156     185    1018    0.00
    02/15/2017 00:20      80    45.9     16.30        52.1      53.5      51.9       2       3      54      65    1018    0.00
    02/15/2017 00:30      79    46.4     16.30        52.6      53.5      51.9       1       3      45      54    1018    0.00
    02/15/2017 00:40      80    46.9     16.30        52.8      53.5      51.9       2       3      47      51    1018    0.00
    02/15/2017 00:50      80    45.5     16.30        51.6      53.5      50.7       2       3     184     185    1018    0.00
    02/15/2017 01:00      83    46.0     16.30        51.2      53.5      50.6       0       3      34      76    1018    0.00
    02/15/2017 01:10      84    45.0     16.30        50.2      53.5      49.6       1       4     255     261    1018    0.00
    02/15/2017 01:20      85    45.8     16.30        50.3      53.5      49.6       0       2     292     297    1018    0.00
    02/15/2017 01:30      85    45.9     16.30        50.3      53.5      49.6       0       2     304     303    1018    0.00
    02/15/2017 01:40      85    44.9     16.30        49.4      53.5      48.9       0       3     253     259    1018    0.00
    02/15/2017 01:50      86    45.1     16.30        49.2      53.5      48.9       0       2     333     335    1018    0.00
    02/15/2017 02:00      86    44.9     16.30        48.9      53.5      48.3       0       2     289     288    1018    0.00
    02/15/2017 02:10      87    44.9     16.30        48.5      53.5      48.1       0       2     315     332    1018    0.00
    02/15/2017 02:20      87    44.6     16.30        48.3      53.5      48.0       0       1     334     287    1018    0.00
    02/15/2017 02:30      88    44.4     16.30        48.0      53.5      47.6       0       1     341     131    1018    0.00
    02/15/2017 02:40      88    44.7     16.30        48.1      53.5      47.6       0       2     109     103    1017    0.00
    02/15/2017 02:50      88    45.5     16.30        48.8      53.5      47.6       1       2      16     339    1017    0.00
    02/15/2017 03:00      88    44.5     16.30        48.0      53.5      47.4       2       4     141     157    1017    0.00
    02/15/2017 03:10      88    44.4     16.30        47.7      53.5      47.3       0       1     318     320    1017    0.00
    02/15/2017 03:20      88    44.9     16.30        48.1      53.5      47.3       2       3     333     315    1017    0.00
    02/15/2017 03:30      88    44.9     16.30        48.1      53.5      47.3       1       2     349     328    1017    0.00
    02/15/2017 03:40      89    44.8     16.30        48.0      53.5      47.3       1       2     348     340    1017    0.00
    02/15/2017 03:50      89    44.9     16.30        48.1      53.5      47.3       0       2     359     347    1017    0.00
    02/15/2017 04:00      89    45.4     16.30        48.5      53.5      47.3       2       3     344     344    1017    0.00
    02/15/2017 04:10      88    44.5     16.30        47.9      53.5      47.3       0       0       0     339    1018    0.00
    02/15/2017 04:20      88    44.3     16.30        47.7      53.5      47.3       0       2      55      59    1017    0.00
    02/15/2017 04:30      89    44.6     16.30        47.9      53.5      47.3       0       2      33      57    1017    0.00
    02/15/2017 04:40      88    44.9     16.30        48.2      53.5      47.3       0       3     337     343    1017    0.00
    02/15/2017 04:50      88    44.1     16.30        47.6      53.5      47.0       0       0       0     354    1017    0.00
    02/15/2017 05:00      88    43.3     16.30        46.9      53.5      46.6       0       1      85      85    1017    0.00
    02/15/2017 05:10      88    43.3     16.30        46.7      53.5      46.1       0       1     215     210    1017    0.00
    02/15/2017 05:20      88    42.6     16.30        46.0      53.5      45.8       0       3     271     305    1017    0.00
    02/15/2017 05:30      89    43.3     16.30        46.5      53.5      45.8       0       2     290     293    1017    0.00
    02/15/2017 05:40      88    43.5     16.30        46.7      53.5      45.8       0       2     311     328    1017    0.00
    02/15/2017 05:50      89    43.0     16.30        46.3      53.5      45.8       0       2     334     324    1018    0.00
    02/15/2017 06:00      89    43.0     16.30        46.2      53.5      45.8       0       2     343     292    1017    0.00
    02/15/2017 06:10      89    43.7     16.30        46.8      53.5      45.8       0       2       5     349    1018    0.00
    02/15/2017 06:20      89    43.0     16.30        46.3      53.5      45.8       1       3     312     291    1018    0.00
    02/15/2017 06:30      88    43.2     16.30        46.5      53.5      45.8       0       3      71      96    1018    0.00
    02/15/2017 06:40      88    42.9     16.30        46.3      53.5      45.8       0       2      38     353    1018    0.00
    02/15/2017 06:50      88    43.2     16.30        46.6      53.5      45.8       0       0      23      20    1018    0.00
    02/15/2017 07:00      86    43.7     16.30        47.3      53.5      45.8       0       1      17       0    1018    0.00
    02/15/2017 07:10      84    43.3     16.30        47.7      53.5      45.8       0       2     108     139    1018    0.00
    02/15/2017 07:20      81    43.5     16.30        48.3      53.5      45.8       2       3      77      83    1018    0.00
    02/15/2017 07:30      74    43.9     16.30        50.8      53.5      45.8       2       3     104      74    1018    0.00
    02/15/2017 07:40      74    43.6     16.30        51.5      53.5      45.8       2       3     214     208    1018    0.00
    02/15/2017 07:50      73    42.9     16.30        51.2      53.5      45.8       2       5     253     251    1019    0.00
    02/15/2017 08:00      71    42.7     16.30        51.5      53.5      45.8       2       4     281     308    1019    0.00
    02/15/2017 08:10      66    42.8     16.30        53.1      53.5      45.8       2       3     264     287    1019    0.00
    02/15/2017 08:20      65    42.3     16.30        53.6      53.8      45.8       0       2     300     304    1019    0.00
    02/15/2017 08:30      62    41.9     16.30        53.9      54.3      45.8       1       2     300     274    1019    0.00
    02/15/2017 08:40      59    41.4     16.30        55.0      55.8      45.8       2       3     285     281    1019    0.00
    02/15/2017 08:50      51    40.8     16.30        56.9      58.2      45.8       2       5     284     275    1019    0.00
    02/15/2017 09:00      42    38.9     16.30        59.9      61.5      45.8       2       4     301     285    1019    0.00
    02/15/2017 09:10      36    36.5     16.30        62.9      64.0      45.8       2       4     269     268    1019    0.00
    02/15/2017 09:20      33    34.8     16.30        64.5      64.8      45.8       0       2     248     240    1019    0.00
    02/15/2017 09:30      34    35.7     16.30        64.7      65.0      45.8       2       4     189     175    1019    0.00
    02/15/2017 09:40      34    36.2     16.30        64.9      65.6      45.8       2       4     182     191    1019    0.00
    02/15/2017 09:50      36    37.5     16.30        66.1      66.6      45.8       3       4     184     183    1019    0.00
    02/15/2017 10:00      36    37.7     16.30        66.5      66.9      45.8       3       4     184     190    1019    0.00
    02/15/2017 10:10      30    37.7     16.30        68.1      69.3      45.8       2       4     161     201    1019    0.00
    02/15/2017 10:20      29    35.4     16.30        68.9      69.4      45.8       3       4     196     186    1019    0.00
    02/15/2017 10:30      25    34.9     16.30        70.2      71.5      45.8       2       4     186     204    1019    0.00
    02/15/2017 10:40      24    32.9     16.30        71.8      72.1      45.8       1       3     225     175    1019    0.00
    02/15/2017 10:50      23    34.0     16.30        73.3      74.0      45.8       0       3     172     150    1019    0.00
    02/15/2017 11:00      23    33.0     16.30        74.1      74.5      45.8       1       3     221     184    1019    0.00
    02/15/2017 11:10      20    32.0     16.30        74.5      75.4      45.8       2       4     172     183    1019    0.00
    02/15/2017 11:20      20    30.3     16.30        76.3      77.2      45.8       2       4     170     175    1019    0.00
    02/15/2017 11:30      15    26.6     16.30        76.4      77.2      45.8       1       3     196     209    1019    0.00
    02/15/2017 11:40      13    24.7     16.30        77.6      78.1      45.8       1       4     316     328    1018    0.00
    02/15/2017 11:50      14    23.2     16.30        77.6      78.1      45.8       1       4     305     290    1018    0.00
    02/15/2017 12:00      13    23.3     16.30        77.1      78.1      45.8       4       7     196     190    1018    0.00
    02/15/2017 12:10      13    21.7     16.30        77.6      78.5      45.8       0       3     154     214    1018    0.00
    02/15/2017 12:20      13    24.3     16.30        78.7      79.1      45.8       2       6     221     190    1018    0.00
    02/15/2017 12:30      14    24.6     16.30        78.2      79.1      45.8       4       6     168     189    1018    0.00
    02/15/2017 12:40      12    24.9     16.30        78.7      79.2      45.8       3       6     173     164    1018    0.00
    02/15/2017 12:50      12    23.9     16.30        78.6      79.3      45.8       3       6     151     152    1017    0.00
    02/15/2017 13:00      13    25.0     16.30        79.4      79.8      45.8       2       6     198     231    1017    0.00
    02/15/2017 13:10      12    25.5     16.30        79.0      79.9      45.8       4       8     176     180    1017    0.00
    02/15/2017 13:20      11    24.1     16.30        79.1      79.9      45.8       3       7     216     248    1017    0.00
    02/15/2017 13:30      15    23.9     16.30        79.1      79.9      45.8       2       6     240     231    1017    0.00
    02/15/2017 13:40      12    23.0     16.30        79.7      80.1      45.8       2       5     221     202    1017    0.00
    02/15/2017 13:50      11    22.3     16.30        79.7      80.6      45.8       0       3     158     252    1017    0.00
    02/15/2017 14:00      15    25.4     16.30        80.3      81.2      45.8       3       7     239     194    1017    0.00
    02/15/2017 14:10      15    26.6     16.30        79.0      81.2      45.8       4       8     224     255    1016    0.00
    02/15/2017 14:20      13    25.6     16.30        78.7      81.2      45.8       4       8     220     272    1016    0.00
    02/15/2017 14:30      14    25.7     16.30        78.1      81.2      45.8       4       8     206     185    1016    0.00
    02/15/2017 14:40      14    25.5     16.30        79.3      81.2      45.8       3       7     178     164    1016    0.00
    02/15/2017 14:50      13    24.5     16.30        78.8      81.2      45.8       3      10     225     243    1016    0.00
    02/15/2017 15:00      12    23.1     16.30        78.0      81.2      45.8       3       6     221     179    1016    0.00
    02/15/2017 15:10      14    23.8     16.30        76.8      81.2      45.8       3       8     163     123    1016    0.00
    02/15/2017 15:20      15    25.7     16.30        75.9      81.2      45.8       2       5     241     201    1016    0.00
    02/15/2017 15:30      12    22.4     16.30        76.7      81.2      45.8       1       4     315     298    1016    0.00
    02/15/2017 15:40      14    23.4     16.30        78.5      81.2      45.8       0       6     214     299    1016    0.00
    02/15/2017 15:50      14    24.8     16.30        78.2      81.2      45.8       3       8     240     244    1016    0.00
    02/15/2017 16:00      15    24.9     16.30        77.5      81.2      45.8       3       7     219     192    1016    0.00
    02/15/2017 16:10      16    24.2     16.30        75.3      81.2      45.8       2       6     212     195    1016    0.00
    02/15/2017 16:20      24    31.4     16.30        74.2      81.2      45.8       4       8     253     250    1016    0.00
    02/15/2017 16:30      28    34.2     16.30        73.8      81.2      45.8       5      12     262     256    1016    0.00
    02/15/2017 16:40      31    38.7     16.30        72.0      81.2      45.8       6      15     267     248    1016    0.00
    02/15/2017 16:50      30    39.4     16.30        70.6      81.2      45.8       5      12     274     290    1016    0.00
    02/15/2017 17:00      30    37.5     16.30        70.4      81.2      45.8       4       9     274     246    1016    0.00
    02/15/2017 17:10      30    37.6     16.30        70.2      81.2      45.8       2       5     273     250    1016    0.00
    02/15/2017 17:20      32    37.2     16.30        69.7      81.2      45.8       2       5     276     248    1016    0.00
    02/15/2017 17:30      31    37.1     16.30        69.3      81.2      45.8       2       4     285     278    1016    0.00
    02/15/2017 17:40      31    36.7     16.30        68.8      81.2      45.8       2       5     279     277    1016    0.00
    02/15/2017 17:50      33    37.1     16.30        68.1      81.2      45.8       2       5     261     255    1017    0.00
    02/15/2017 18:00      34    37.8     16.30        67.6      81.2      45.8       2       5     278     268    1017    0.00
    02/15/2017 18:10      37    38.5     16.30        66.7      81.2      45.8       2       4     281     296    1017    0.00
    02/15/2017 18:20      39    39.7     16.30        66.0      81.2      45.8       0       2     273     255    1017    0.00
    02/15/2017 18:30      41    39.8     16.30        65.2      81.2      45.8       1       3     258     293    1017    0.00
    02/15/2017 18:40      36    38.5     16.30        64.3      81.2      45.8       2       3     257     249    1017    0.00
    02/15/2017 18:50      36    36.6     16.30        64.2      81.2      45.8       2       3     258     258    1017    0.00
    02/15/2017 19:00      35    34.9     16.30        63.6      81.2      45.8       0       3     283     279    1017    0.00
    02/15/2017 19:10      36    35.1     16.30        63.1      81.2      45.8       0       0     287     283    1017    0.00
    02/15/2017 19:20      37    34.8     16.30        61.9      81.2      45.8       0       0       0     300    1017    0.00
    02/15/2017 19:30      39    35.9     16.30        61.0      81.2      45.8       0       0       0     296    1017    0.00
    02/15/2017 19:40      39    34.1     16.30        61.0      81.2      45.8       0       0       0     219    1017    0.00
    02/15/2017 19:50      41    36.5     16.30        60.2      81.2      45.8       0       0       0      40    1017    0.00
    02/15/2017 20:00      38    35.6     16.30        59.9      81.2      45.8       0       1     311     289    1017    0.00
    02/15/2017 20:10      39    34.9     16.30        60.0      81.2      45.8       0       0     323     332    1017    0.00
    02/15/2017 20:20      39    35.7     16.30        59.7      81.2      45.8       0       0     312     289    1017    0.00
    02/15/2017 20:30      42    35.2     16.30        59.4      81.2      45.8       0       1     331     332    1018    0.00
    02/15/2017 20:40      39    35.0     16.30        58.5      81.2      45.8       0       1     352     340    1018    0.00
    02/15/2017 20:50      38    33.1     16.30        58.8      81.2      45.8       0       2      26      47    1018    0.00
    02/15/2017 21:00      42    35.6     16.30        58.8      81.2      45.8       0       0       0      18    1018    0.00
    02/15/2017 21:10      45    35.9     16.30        57.8      81.2      45.8       0       0     352     353    1017    0.00
    02/15/2017 21:20      47    36.2     16.30        57.6      81.2      45.8       0       0     320     325    1017    0.00
    02/15/2017 21:30      42    35.6     16.30        57.5      81.2      45.8       0       2     360     354    1017    0.00
    02/15/2017 21:40      45    36.5     16.30        57.2      81.2      45.8       0       0       0       6    1017    0.00
    02/15/2017 21:50      51    37.3     16.30        56.0      81.2      45.8       0       0       0      14    1017    0.00
    02/15/2017 22:00      52    37.6     16.30        55.3      81.2      45.8       0       0       0     307    1017    0.00
    02/15/2017 22:10      52    37.9     16.30        55.0      81.2      45.8       0       2     334     332    1017    0.00
    02/15/2017 22:20      53    37.6     16.30        54.8      81.2      45.8       0       0       0     321    1017    0.00
    02/15/2017 22:30      54    37.5     16.30        53.9      81.2      45.8       0       0     212     212    1017    0.00
    02/15/2017 22:40      52    37.4     16.30        53.8      81.2      45.8       0       2     337     338    1017    0.00
    02/15/2017 22:50      51    37.2     16.30        54.7      81.2      45.8       0       1     319     335    1018    0.00
    02/15/2017 23:00      51    36.8     16.30        54.7      81.2      45.8       0       0      50      59    1017    0.00
    02/15/2017 23:10      51    36.6     16.30        54.9      81.2      45.8       0       0       0      36    1017    0.00
    02/15/2017 23:20      53    37.7     16.30        54.6      81.2      45.8       0       0       0     345    1017    0.00
    02/15/2017 23:30      54    37.6     16.30        54.0      81.2      45.8       0       1     344     344    1017    0.00
    02/15/2017 23:40      56    37.8     16.30        53.8      81.2      45.8       0       0       0     342    1017    0.00
    02/15/2017 23:50      58    38.1     16.30        53.0      81.2      45.8       0       0       0     339    1017    0.00
    02/16/2017 00:00      57    38.0     16.30        52.8      81.2      45.8       0       0       0     291    1017    0.00
    02/16/2017 00:10      57    38.0     16.30        52.8      53.0      52.5       0       1     289     287    1017    0.00
    02/16/2017 00:20      55    37.5     16.30        52.7      53.0      52.5       0       0     354       0    1017    0.00
    02/16/2017 00:30      55    37.0     16.30        53.0      53.2      52.5       0       1      50      55    1017    0.00
    02/16/2017 00:40      57    37.8     16.30        52.8      53.2      52.5       0       2      36      51    1017    0.00
    02/16/2017 00:50      57    38.3     16.30        53.2      53.6      52.5       0       2      16      18    1017    0.00
    02/16/2017 01:00      57    38.3     16.30        52.8      53.6      52.3       0       0       0       2    1017    0.00
    02/16/2017 01:10      59    37.5     16.30        51.9      53.6      51.3       0       1     287     291    1017    0.00
    02/16/2017 01:20      59    37.4     16.30        51.4      53.6      51.2       0       0       0     260    1017    0.00
    02/16/2017 01:30      61    38.0     16.30        51.3      53.6      51.1       0       0       0     260    1017    0.00
    02/16/2017 01:40      62    38.1     16.30        51.0      53.6      50.9       0       0      67      64    1017    0.00
    02/16/2017 01:50      61    38.1     16.30        51.1      53.6      50.9       0       1      14      64    1017    0.00
    02/16/2017 02:00      61    37.9     16.30        51.0      53.6      50.7       0       0     355       5    1016    0.00
    02/16/2017 02:10      61    37.7     16.30        50.7      53.6      50.4       0       0       0     347    1016    0.00
    02/16/2017 02:20      61    37.5     16.30        50.4      53.6      50.3       0       1     297     295    1016    0.00
    02/16/2017 02:30      62    37.4     16.30        50.3      53.6      50.0       0       0     343     342    1016    0.00
    02/16/2017 02:40      62    37.5     16.30        49.9      53.6      49.6       0       0     338     342    1016    0.00
    02/16/2017 02:50      60    37.5     16.30        50.1      53.6      49.6       0       2     338     351    1016    0.00
    02/16/2017 03:00      59    37.1     16.30        51.0      53.6      49.6       1       2     337     333    1016    0.00
    02/16/2017 03:10      62    37.9     16.30        50.9      53.6      49.6       0       0     349     339    1016    0.00
    02/16/2017 03:20      63    38.0     16.30        50.2      53.6      49.6       0       0     342     342    1016    0.00
    02/16/2017 03:30      64    37.8     16.30        49.9      53.6      49.6       0       0       0     354    1016    0.00
    02/16/2017 03:40      62    38.0     16.30        50.0      53.6      49.6       0       0       0       3    1015    0.00
    02/16/2017 03:50      63    37.6     16.30        49.8      53.6      49.5       0       0       0     330    1015    0.00
    02/16/2017 04:00      62    37.2     16.30        49.5      53.6      49.2       0       0       0       4    1015    0.00
    02/16/2017 04:10      64    37.3     16.30        49.1      53.6      48.7       0       0       0     188    1016    0.00
    02/16/2017 04:20      64    37.2     16.30        48.9      53.6      48.7       0       0       0     296    1015    0.00
    02/16/2017 04:30      63    37.5     16.30        49.2      53.6      48.7       0       1      74      85    1015    0.00
    02/16/2017 04:40      64    37.5     16.30        49.3      53.6      48.7       0       0       0      55    1015    0.00
    02/16/2017 04:50      66    37.6     16.30        48.9      53.6      48.6       0       0       0      55    1015    0.00
    02/16/2017 05:00      65    37.5     16.30        48.5      53.6      48.2       0       0       0      54    1015    0.00
    02/16/2017 05:10      67    37.4     16.30        47.9      53.6      47.6       0       2     295     290    1015    0.00
    02/16/2017 05:20      67    37.3     16.30        47.8      53.6      47.5       0       0       0     296    1015    0.00
    02/16/2017 05:30      68    37.3     16.30        47.3      53.6      47.0       0       0       0     298    1015    0.00
    02/16/2017 05:40      68    37.3     16.30        47.2      53.6      47.0       0       0       0     285    1015    0.00
    02/16/2017 05:50      68    37.4     16.30        47.3      53.6      47.0       0       0       0     330    1015    0.00
    02/16/2017 06:00      66    37.3     16.30        47.6      53.6      47.0       0       1     314     314    1015    0.00
    02/16/2017 06:10      66    37.2     16.30        47.9      53.6      47.0       0       2     337     331    1016    0.00
    02/16/2017 06:20      68    37.1     16.30        47.5      53.6      47.0       0       1      16      37    1016    0.00
    02/16/2017 06:30      69    37.1     16.30        47.1      53.6      46.8       0       1      16      33    1016    0.00
    02/16/2017 06:40      70    37.4     16.30        46.9      53.6      46.6       0       0       0     333    1016    0.00
    02/16/2017 06:50      70    37.7     16.30        46.8      53.6      46.5       0       0       0     353    1016    0.00
    02/16/2017 07:00      70    38.0     16.30        47.2      53.6      46.5       0       0       0      56    1016    0.00
    02/16/2017 07:10      70    38.3     16.30        47.6      53.6      46.5       0       0       0      56    1016    0.00
    02/16/2017 07:20      68    38.5     16.30        48.1      53.6      46.5       0       0       0      56    1016    0.00
    02/16/2017 07:30      64    39.3     16.30        49.8      53.6      46.5       0       0       0      56    1016    0.00
    02/16/2017 07:40      61    39.2     16.30        52.1      53.6      46.5       0       1     266     260    1016    0.00
    02/16/2017 07:50      58    39.9     16.30        53.5      54.6      46.5       0       1     281     288    1016    0.00
    02/16/2017 08:00      47    38.8     16.30        56.5      57.6      46.5       0       0       0     309    1016    0.00
    02/16/2017 08:10      49    38.6     16.30        57.5      57.9      46.5       0       2      78      95    1016    0.00
    02/16/2017 08:20      47    37.6     16.30        58.1      58.4      46.5       0       3      78      86    1016    0.00
    02/16/2017 08:30      39    36.8     16.30        59.4      60.6      46.5       0       2      70      73    1015    0.00
    02/16/2017 08:40      36    34.1     16.30        61.2      61.9      46.5       0       0     197     200    1016    0.00
    02/16/2017 08:50      34    35.2     16.30        62.0      62.8      46.5       0       1     161     173    1016    0.00
    02/16/2017 09:00      34    34.7     16.30        63.9      64.6      46.5       0       3     180     202    1016    0.00
    02/16/2017 09:10      36    35.9     16.30        64.1      64.6      46.5       0       3     177     159    1016    0.00
    02/16/2017 09:20      33    35.8     16.30        64.7      65.1      46.5       1       3     163     177    1016    0.00
    02/16/2017 09:30      31    35.2     16.30        65.5      66.2      46.5       0       2     150     187    1016    0.00
    02/16/2017 09:40      30    35.0     16.30        66.4      67.0      46.5       0       3     150     133    1016    0.00
    02/16/2017 09:50      29    32.7     16.30        66.4      67.0      46.5       0       2     167     230    1016    0.00
    02/16/2017 10:00      27    34.1     16.30        66.9      67.4      46.5       0       5     168     192    1016    0.00
    02/16/2017 10:10      29    33.8     16.30        67.1      67.4      46.5       0       3     176     202    1016    0.00
    02/16/2017 10:20      29    33.3     16.30        66.5      67.4      46.5       2       4      63      40    1016    0.00
    02/16/2017 10:30      30    33.0     16.30        66.3      67.4      46.5       1       3     122     194    1016    0.00
    02/16/2017 10:40      29    33.9     16.30        67.0      67.6      46.5       1       5     197     146    1016    0.00
    02/16/2017 10:50      29    33.6     16.30        67.5      68.0      46.5       0       3     203     157    1016    0.00
    02/16/2017 11:00      27    34.8     16.30        69.0      69.6      46.5       2       5     168     172    1016    0.00
    02/16/2017 11:10      26    33.9     16.30        68.9      69.6      46.5       2       6     111     150    1016    0.00
    02/16/2017 11:20      28    34.0     16.30        68.7      69.6      46.5       1       5     175     191    1016    0.00
    02/16/2017 11:30      27    32.7     16.30        68.3      69.6      46.5       2       4      98      48    1016    0.00
    02/16/2017 11:40      26    33.3     16.30        68.7      69.8      46.5       1       4      39      63    1015    0.00
    02/16/2017 11:50      25    33.2     16.30        70.3      71.1      46.5       0       4      67      53    1015    0.00
    02/16/2017 12:00      26    32.9     16.30        69.5      71.1      46.5       2       5      97      70    1015    0.00
    02/16/2017 12:10      25    31.6     16.30        69.1      71.1      46.5       1       4     108      82    1015    0.00
    02/16/2017 12:20      27    32.6     16.30        69.3      71.1      46.5       2       6     161     159    1014    0.00
    02/16/2017 12:30      26    31.9     16.30        69.0      71.1      46.5       0       3     151     171    1014    0.00
    02/16/2017 12:40      25    31.6     16.30        69.2      71.1      46.5       1       4     135     123    1014    0.00
    02/16/2017 12:50      26    31.2     16.30        69.0      71.1      46.5       0       3     155     196    1014    0.00
    02/16/2017 13:00      29    34.2     16.30        69.8      71.1      46.5       0       5     244     249    1014    0.00
    02/16/2017 13:10      30    37.3     16.30        69.9      71.1      46.5       4      10     255     249    1014    0.00
    02/16/2017 13:20      31    36.8     16.30        69.2      71.1      46.5       4       8     274     249    1014    0.00
    02/16/2017 13:30      30    36.5     16.30        69.2      71.1      46.5       5       9     287     306    1014    0.00
    02/16/2017 13:40      31    36.5     16.30        68.8      71.1      46.5       5       9     292     284    1014    0.00
    02/16/2017 13:50      30    36.4     16.30        69.1      71.1      46.5       3       7     268     256    1013    0.00
    02/16/2017 14:00      27    36.0     16.30        68.7      71.1      46.5       3       7     261     242    1013    0.00
    02/16/2017 14:10      26    33.6     16.30        69.2      71.1      46.5       3       7     253     237    1013    0.00
    02/16/2017 14:20      22    31.2     16.30        69.3      71.1      46.5       3       7     251     254    1013    0.00
    02/16/2017 14:30      21    30.9     16.30        70.5      71.1      46.5       3       7     256     241    1013    0.00
    02/16/2017 14:40      20    27.2     16.30        70.3      71.1      46.5       3       8     273     255    1013    0.00
    02/16/2017 14:50      22    29.1     16.30        69.8      71.1      46.5       2       5     281     263    1013    0.00
    02/16/2017 15:00      24    29.6     16.30        68.7      71.1      46.5       2       5     260     263    1013    0.00
    02/16/2017 15:10      26    31.3     16.30        69.0      71.1      46.5       0       4     199     186    1013    0.00
    02/16/2017 15:20      22    31.5     16.30        70.0      71.1      46.5       0       3     229     216    1013    0.00
    02/16/2017 15:30      22    30.1     16.30        70.1      71.1      46.5       1       4     197     186    1013    0.00
    02/16/2017 15:40      23    29.3     16.30        69.6      71.1      46.5       0       1     187     205    1012    0.00
    02/16/2017 15:50      25    31.3     16.30        69.4      71.1      46.5       0       3     168     166    1012    0.00
    02/16/2017 16:00      27    32.9     16.30        69.0      71.1      46.5       2       5     170     151    1013    0.00
    02/16/2017 16:10      26    33.8     16.30        68.7      71.1      46.5       0       2     141     144    1012    0.00
    02/16/2017 16:20      28    32.9     16.30        68.6      71.1      46.5       0       0       0     111    1012    0.00
    02/16/2017 16:30      27    34.9     16.30        68.4      71.1      46.5       0       3     241     239    1013    0.00
    02/16/2017 16:40      26    32.1     16.30        68.1      71.1      46.5       2       4     282     248    1013    0.00
    02/16/2017 16:50      27    32.5     16.30        67.2      71.1      46.5       2       6     271     252    1012    0.00
    02/16/2017 17:00      29    32.8     16.30        66.4      71.1      46.5       2       4     273     261    1012    0.00
    02/16/2017 17:10      36    35.6     16.30        65.7      71.1      46.5       1       5     269     237    1012    0.00
    02/16/2017 17:20      52    43.2     16.30        64.4      71.1      46.5       3       7     253     271    1012    0.00
    02/16/2017 17:30      54    45.7     16.30        63.0      71.1      46.5       0       8     267     251    1012    0.00
    02/16/2017 17:40      52    45.6     16.30        62.8      71.1      46.5       0       2      93      93    1012    0.00
    02/16/2017 17:50      52    45.1     16.30        63.2      71.1      46.5       0       3     108      96    1012    0.00
    02/16/2017 18:00      52    45.3     16.30        63.2      71.1      46.5       0       3     138     100    1012    0.00
    02/16/2017 18:10      51    45.0     16.30        63.2      71.1      46.5       2       5     106      98    1012    0.00
    02/16/2017 18:20      51    45.0     16.30        63.3      71.1      46.5       1       3     123     119    1012    0.00
    02/16/2017 18:30      54    45.1     16.30        63.1      71.1      46.5       0       1     185     199    1012    0.00
    02/16/2017 18:40      56    46.3     16.30        62.5      71.1      46.5       1       4     201     176    1012    0.00
    02/16/2017 18:50      55    46.3     16.30        62.5      71.1      46.5       2       4     171     176    1012    0.00
    02/16/2017 19:00      55    46.5     16.30        62.3      71.1      46.5       2       5     259     261    1012    0.00
    02/16/2017 19:10      56    45.7     16.30        62.2      71.1      46.5       0       3     254     247    1012    0.00
    02/16/2017 19:20      56    46.3     16.30        62.0      71.1      46.5       0       2      98     128    1012    0.00
    02/16/2017 19:30      58    46.6     16.30        62.1      71.1      46.5       0       2      50      66    1012    0.00
    02/16/2017 19:40      55    46.2     16.30        61.8      71.1      46.5       0       3      35      34    1012    0.00
    02/16/2017 19:50      57    46.3     16.30        61.8      71.1      46.5       1       4      59      55    1012    0.00
    02/16/2017 20:00      59    45.9     16.30        61.6      71.1      46.5       0       0      70      70    1012    0.00
    02/16/2017 20:10      58    46.3     16.30        61.4      71.1      46.5       0       3      58      81    1012    0.00
    02/16/2017 20:20      60    46.7     16.30        61.4      71.1      46.5       0       2      37      63    1012    0.00
    02/16/2017 20:30      60    47.1     16.30        60.9      71.1      46.5       2       4     157     166    1012    0.00
    02/16/2017 20:40      62    47.1     16.30        60.5      71.1      46.5       3       4     154     160    1012    0.00
    02/16/2017 20:50      62    47.3     16.30        60.2      71.1      46.5       0       3     138     137    1012    0.00
    02/16/2017 21:00      65    47.6     16.30        60.0      71.1      46.5       1       3     115      95    1012    0.00
    02/16/2017 21:10      68    48.5     16.30        59.7      71.1      46.5       0       4     122      99    1012    0.00
    02/16/2017 21:20      69    49.0     16.30        59.4      71.1      46.5       0       4     101     115    1012    0.00
    02/16/2017 21:30      68    48.6     16.30        59.0      71.1      46.5       2       5     108      92    1012    0.00
    02/16/2017 21:40      69    48.6     16.30        58.8      71.1      46.5       2       4      86     107    1012    0.00
    02/16/2017 21:50      70    48.7     16.30        58.7      71.1      46.5       2       4     108      71    1012    0.00
    02/16/2017 22:00      70    48.7     16.30        58.5      71.1      46.5       0       5     109     123    1012    0.00
    02/16/2017 22:10      71    48.8     16.30        58.3      71.1      46.5       1       5     101      91    1012    0.00
    02/16/2017 22:20      73    49.0     16.30        58.1      71.1      46.5       1       4      99      89    1012    0.00
    02/16/2017 22:30      74    49.4     16.30        57.9      71.1      46.5       1       4      88      94    1012    0.00
    02/16/2017 22:40      76    49.9     16.30        57.6      71.1      46.5       2       5      71      57    1012    0.00
    02/16/2017 22:50      78    50.1     16.30        57.3      71.1      46.5       2       4      67      27    1012    0.00
    02/16/2017 23:00      78    50.1     16.30        57.1      71.1      46.5       2       5      59      40    1011    0.00
    02/16/2017 23:10      79    50.1     16.30        56.8      71.1      46.5       2       5      46      69    1011    0.00
    02/16/2017 23:20      80    50.4     16.31        56.5      71.1      46.5       0       3      76      89    1011    0.01
    02/16/2017 23:30      82    50.5     16.31        56.3      71.1      46.5       2       4     104      81    1012    0.00
    02/16/2017 23:40      83    50.8     16.32        56.1      71.1      46.5       0       2     105      73    1012    0.01
    02/16/2017 23:50      84    50.9     16.32        56.0      71.1      46.5       0       2      95      99    1012    0.00
    02/17/2017 00:00      85    51.2     16.32        55.9      71.1      46.5       2       4      70      66    1011    0.00
    02/17/2017 00:10      85    51.4     16.32        55.8      56.1      55.5       3       6      62      59    1011    0.00
    02/17/2017 00:20      86    51.3     16.32        55.5      56.1      55.3       2       6      40      60    1010    0.00
    02/17/2017 00:30      86    51.4     16.32        55.5      56.1      55.3       2       4      91      71    1010    0.00
    02/17/2017 00:40      85    51.3     16.33        55.5      56.1      55.1       1       4     118      88    1010    0.01
    02/17/2017 00:50      85    50.9     16.33        55.3      56.1      55.1       2       4      85     102    1010    0.00
    02/17/2017 01:00      85    50.9     16.33        55.3      56.1      55.0       3       7      82      76    1010    0.00
    02/17/2017 01:10      84    50.6     16.33        55.2      56.1      55.0       3       6      92     102    1010    0.00
    02/17/2017 01:20      83    50.4     16.33        55.2      56.1      55.0       3       5      83      58    1010    0.00
    02/17/2017 01:30      83    50.2     16.33        55.2      56.1      55.0       2       5     126     116    1010    0.00
    02/17/2017 01:40      83    50.2     16.33        55.2      56.1      55.0       0       5     126      99    1010    0.00
    02/17/2017 01:50      84    50.3     16.33        55.2      56.1      55.0       0       5     114     119    1010    0.00
    02/17/2017 02:00      84    50.4     16.33        55.2      56.1      55.0       2       5      92      84    1010    0.00
    02/17/2017 02:10      83    50.2     16.33        55.2      56.1      55.0       3       9      97     108    1009    0.00
    02/17/2017 02:20      83    50.1     16.33        55.2      56.1      55.0       3       7      99      94    1009    0.00
    02/17/2017 02:30      82    49.9     16.33        55.1      56.1      55.0       5      10      87     102    1009    0.00
    02/17/2017 02:40      82    49.8     16.33        55.0      56.1      54.8       4       8      96      97    1008    0.00
    02/17/2017 02:50      83    49.7     16.33        55.0      56.1      54.8       2       5     117     147    1009    0.00
    02/17/2017 03:00      83    49.9     16.33        55.0      56.1      54.8       3       8     113      95    1008    0.00
    02/17/2017 03:10      83    49.8     16.33        54.9      56.1      54.7       4       9      99      72    1008    0.00
    02/17/2017 03:20      83    49.9     16.33        54.9      56.1      54.7       3       6     115     133    1008    0.00
    02/17/2017 03:30      83    49.7     16.33        54.8      56.1      54.6       3       9     142     154    1009    0.00
    02/17/2017 03:40      83    49.7     16.33        54.8      56.1      54.6       3       6     166     199    1009    0.00
    02/17/2017 03:50      82    49.5     16.33        54.7      56.1      54.6       4       8     150     157    1009    0.00
    02/17/2017 04:00      80    49.0     16.33        54.6      56.1      54.4       4      10     150     156    1009    0.00
    02/17/2017 04:10      79    48.2     16.33        54.5      56.1      54.4       6      15     154     161    1009    0.00
    02/17/2017 04:20      79    48.2     16.33        54.4      56.1      54.2       3       9     129     145    1008    0.00
    02/17/2017 04:30      79    48.0     16.33        54.2      56.1      54.0       5      13     135     165    1008    0.00
    02/17/2017 04:40      79    47.8     16.33        54.1      56.1      53.9       4      11     126     115    1008    0.00
    02/17/2017 04:50      80    47.8     16.33        54.0      56.1      53.7       5      11     134     159    1008    0.00
    02/17/2017 05:00      79    47.7     16.33        53.9      56.1      53.7       7      13     145     141    1008    0.00
    02/17/2017 05:10      79    47.5     16.33        53.8      56.1      53.6       7      15     148     134    1008    0.00
    02/17/2017 05:20      79    47.4     16.33        53.8      56.1      53.6       5      12     145     138    1008    0.00
    02/17/2017 05:30      80    47.5     16.33        53.8      56.1      53.6       6      13     139     146    1008    0.00
    02/17/2017 05:40      80    47.7     16.33        53.8      56.1      53.6       6      14     128     134    1009    0.00
    02/17/2017 05:50      81    47.8     16.33        53.6      56.1      53.3       5      10     117      59    1008    0.00
    02/17/2017 06:00      82    47.9     16.33        53.4      56.1      53.1       5      13     107      89    1008    0.00
    02/17/2017 06:10      82    47.9     16.33        53.2      56.1      53.1       6      14     104      78    1008    0.00
    02/17/2017 06:20      82    47.9     16.33        53.1      56.1      53.0       6      16     101      92    1007    0.00
    02/17/2017 06:30      83    47.9     16.33        53.1      56.1      52.9       7      13      95      96    1007    0.00
    02/17/2017 06:40      83    48.1     16.33        53.1      56.1      52.9       6      11     104     103    1007    0.00
    02/17/2017 06:50      83    48.2     16.33        53.1      56.1      52.9       6      13      95      81    1007    0.00
    02/17/2017 07:00      82    48.1     16.33        53.2      56.1      52.9       4       8     120      92    1007    0.00
    02/17/2017 07:10      82    48.0     16.33        53.3      56.1      52.9       4      12     119     132    1007    0.00
    02/17/2017 07:20      81    48.1     16.33        53.5      56.1      52.9       5      12     118     152    1007    0.00
    02/17/2017 07:30      81    47.9     16.33        53.6      56.1      52.9       5      14     120     158    1007    0.00
    02/17/2017 07:40      79    47.6     16.33        53.6      56.1      52.9       6      13     128     180    1007    0.00
    02/17/2017 07:50      81    47.5     16.35        53.5      56.1      52.9       5      14     123     136    1006    0.02
    02/17/2017 08:00      83    47.7     16.40        52.9      56.1      52.4       7      17     129     124    1007    0.05
    02/17/2017 08:10      85    47.8     16.43        52.4      56.1      52.0       5      14     124      89    1007    0.03
    02/17/2017 08:20      87    48.3     16.46        52.2      56.1      52.0       6      15     107     135    1006    0.03
    02/17/2017 08:30      88    48.6     16.46        52.2      56.1      52.0       6      13     103      80    1006    0.00
    02/17/2017 08:40      88    48.9     16.47        52.4      56.1      52.0       7      14      98      97    1006    0.01
    02/17/2017 08:50      89    49.1     16.48        52.4      56.1      52.0       6      14     103     116    1006    0.01
    02/17/2017 09:00      89    49.2     16.50        52.5      56.1      52.0       6      15     104      92    1005    0.02
    02/17/2017 09:10      89    49.3     16.52        52.5      56.1      52.0       7      18      93     115    1005    0.02
    02/17/2017 09:20      89    49.3     16.53        52.4      56.1      52.0       9      18     100      91    1005    0.01
    02/17/2017 09:30      89    49.3     16.54        52.3      56.1      52.0       6      17     112      96    1005    0.01
    02/17/2017 09:40      89    49.4     16.56        52.4      56.1      52.0       6      14     106     106    1005    0.02
    02/17/2017 09:50      89    49.4     16.61        52.4      56.1      52.0       5      11     111      85    1005    0.05
    02/17/2017 10:00      90    49.4     16.66        52.3      56.1      52.0       6      15     119     141    1005    0.05
    02/17/2017 10:10      90    49.5     16.70        52.3      56.1      52.0       6      15     115      80    1004    0.04
    02/17/2017 10:20      90    49.6     16.73        52.4      56.1      52.0       6      15     108      97    1004    0.03
    02/17/2017 10:30      90    49.7     16.76        52.4      56.1      52.0       7      18     104     113    1004    0.03
    02/17/2017 10:40      91    49.7     16.79        52.4      56.1      52.0       7      14     107     108    1003    0.03
    02/17/2017 10:50      91    49.8     16.81        52.5      56.1      52.0       7      18     109      79    1003    0.02
    02/17/2017 11:00      91    49.8     16.82        52.5      56.1      52.0       8      17     110     113    1003    0.01
    02/17/2017 11:10      91    49.7     16.83        52.4      56.1      52.0       7      21     100     116    1002    0.01
    02/17/2017 11:20      91    49.7     16.85        52.3      56.1      52.0       9      23     109      90    1002    0.02
    02/17/2017 11:30      91    49.7     16.86        52.4      56.1      52.0       9      21     101      91    1002    0.01
    02/17/2017 11:40      91    49.8     16.89        52.4      56.1      52.0      10      25     101      85    1001    0.03
    02/17/2017 11:50      91    49.8     16.93        52.5      56.1      52.0      11      30     112      96    1001    0.04
    02/17/2017 12:00      91    49.9     16.96        52.6      56.1      52.0      10      27     108      95    1000    0.03
    02/17/2017 12:10      91    50.0     17.03        52.6      56.1      52.0       9      25     112      78    1000    0.07
    02/17/2017 12:20      91    50.1     17.09        52.8      56.1      52.0       9      22     109      92    1000    0.06
    02/17/2017 12:30      91    50.3     17.14        52.9      56.1      52.0      10      26     121      86    1000    0.05
    02/17/2017 12:40      90    50.4     17.19        53.1      56.1      52.0      10      26     114     150    1000    0.05
    02/17/2017 12:50      90    50.3     17.25        53.0      56.1      52.0      11      29     122      84    1000    0.06
    02/17/2017 13:00      90    50.3     17.32        53.1      56.1      52.0       8      28     119     130     999    0.07
    02/17/2017 13:10      90    50.4     17.42        53.1      56.1      52.0       8      21     122     141     999    0.10
    02/17/2017 13:20      91    50.4     17.52        53.1      56.1      52.0      10      24     123     155     999    0.10
    02/17/2017 13:30      91    50.4     17.62        53.1      56.1      52.0      10      21     127     134     999    0.10
    02/17/2017 13:40      91    50.4     17.71        53.0      56.1      52.0       8      21     124     137     999    0.09
    02/17/2017 13:50      91    50.5     17.78        53.0      56.1      52.0       9      19     118     116     999    0.07
    02/17/2017 14:00      91    50.7     17.87        53.2      56.1      52.0       8      22     120     133     999    0.09
    02/17/2017 14:10      91    50.9     17.96        53.3      56.1      52.0       6      17     123     152     998    0.09
    02/17/2017 14:20      91    51.0     18.04        53.4      56.1      52.0       9      20     131     125     998    0.08
    02/17/2017 14:30      91    51.1     18.13        53.5      56.1      52.0       9      22     129     130     998    0.09
    02/17/2017 14:40      92    51.2     18.23        53.6      56.1      52.0       8      16     112     125     997    0.10
    02/17/2017 14:50      92    51.2     18.35        53.5      56.1      52.0      10      23     129     163     997    0.12
    02/17/2017 15:00      92    51.1     18.49        53.4      56.1      52.0       9      18     135     136     997    0.14
    02/17/2017 15:10      92    51.0     18.60        53.4      56.1      52.0       9      21     121     141     997    0.11
    02/17/2017 15:20      92    50.9     18.69        53.3      56.1      52.0       9      24     121     123     997    0.09
    02/17/2017 15:30      92    51.0     18.75        53.4      56.1      52.0       9      20     130     167     997    0.06
    02/17/2017 15:40      92    51.2     18.80        53.5      56.1      52.0       7      18     121     137     996    0.05
    02/17/2017 15:50      92    51.3     18.87        53.6      56.1      52.0       6      16     114     140     996    0.07
    02/17/2017 16:00      92    51.3     18.93        53.6      56.1      52.0       8      17     122     124     996    0.06
    02/17/2017 16:10      92    51.4     19.00        53.7      56.1      52.0       7      14     130     113     996    0.07
    02/17/2017 16:20      92    51.5     19.15        53.8      56.1      52.0       9      19     131     153     996    0.15
    02/17/2017 16:30      92    50.3     19.20        52.6      56.1      51.7      13      26     148     163     996    0.05
    02/17/2017 16:40      92    49.2     19.21        51.5      56.1      51.2       7      15     153     181     996    0.01
    02/17/2017 16:50      92    48.8     19.23        51.1      56.1      50.8       6      12     161     155     996    0.02
    02/17/2017 17:00      92    48.4     19.24        50.8      56.1      50.5       4       8     153     151     996    0.01
    02/17/2017 17:10      92    48.2     19.24        50.5      56.1      50.3       2       5     105      77     997    0.00
    02/17/2017 17:20      92    48.1     19.26        50.4      56.1      50.2       1       4      98      91     997    0.02
    02/17/2017 17:30      92    48.1     19.28        50.4      56.1      50.1       3       4      83      82     997    0.02
    02/17/2017 17:40      92    48.1     19.30        50.4      56.1      50.1       3       5      77      90     997    0.02
    02/17/2017 17:50      92    48.1     19.34        50.3      56.1      50.1       3       5      83      93     997    0.04
    02/17/2017 18:00      92    48.4     19.37        50.6      56.1      50.1       4       9      95     110     997    0.03
    02/17/2017 18:10      92    48.6     19.39        50.8      56.1      50.1       3      10     110     126     997    0.02
    02/17/2017 18:20      92    48.5     19.43        50.8      56.1      50.1       4       9     105      97     997    0.04
    02/17/2017 18:30      92    48.4     19.46        50.6      56.1      50.1       4       8      93      97     997    0.03
    02/17/2017 18:40      92    48.4     19.48        50.6      56.1      50.1       5      10      91     107     997    0.02
    02/17/2017 18:50      92    48.3     19.50        50.5      56.1      50.1       6      15      88      89     996    0.02
    02/17/2017 19:00      92    48.1     19.51        50.3      56.1      50.1       7      13      89      66     997    0.01
    02/17/2017 19:10      92    48.0     19.53        50.2      56.1      50.0       6      13      89      69     997    0.02
    02/17/2017 19:20      92    47.9     19.54        50.1      56.1      49.9       7      12      86      84     997    0.01
    02/17/2017 19:30      92    47.6     19.56        49.8      56.1      49.6       7      14      85      76     997    0.02
    02/17/2017 19:40      92    47.5     19.58        49.7      56.1      49.5       5      12      95      89     997    0.02
    02/17/2017 19:50      92    47.3     19.60        49.5      56.1      49.3       5      11      93      83     997    0.02
    02/17/2017 20:00      92    47.2     19.61        49.4      56.1      49.2       5      10      92      81     997    0.01
    02/17/2017 20:10      92    47.1     19.61        49.3      56.1      49.1       4       9      93      97     997    0.00
    02/17/2017 20:20      92    47.1     19.61        49.4      56.1      49.1       3       6      98      88     996    0.00
    02/17/2017 20:30      92    47.2     19.62        49.4      56.1      49.1       2       5     110     134     996    0.01
    02/17/2017 20:40      92    47.4     19.62        49.6      56.1      49.1       4       9     130     146     997    0.00
    02/17/2017 20:50      92    47.5     19.62        49.7      56.1      49.1       5       9     145     175     997    0.00
    02/17/2017 21:00      92    47.3     19.62        49.5      56.1      49.1       3       9     119     123     997    0.00
    02/17/2017 21:10      92    47.3     19.62        49.5      56.1      49.1       2       5     142     174     997    0.00
    02/17/2017 21:20      92    47.2     19.62        49.4      56.1      49.1       3       6     144     151     997    0.00
    02/17/2017 21:30      92    47.1     19.62        49.3      56.1      49.1       2       8     122     116     997    0.00
    02/17/2017 21:40      92    47.0     19.62        49.2      56.1      49.1       3       8     114     132     997    0.00
    02/17/2017 21:50      92    47.0     19.62        49.2      56.1      49.0       3       8     120     128     997    0.00
    02/17/2017 22:00      92    46.9     19.62        49.1      56.1      48.9       2       5     123     150     997    0.00
    02/17/2017 22:10      92    46.8     19.62        49.1      56.1      48.9       2       8     122     125     997    0.00
    02/17/2017 22:20      92    46.7     19.62        49.0      56.1      48.8       3       8     119     150     998    0.00
    02/17/2017 22:30      92    46.6     19.63        48.9      56.1      48.7       3       8     131     116     998    0.01
    02/17/2017 22:40      92    46.6     19.63        48.9      56.1      48.6       3       9      91      73     998    0.00
    02/17/2017 22:50      92    46.5     19.63        48.8      56.1      48.6       2       5      94      66     998    0.00
    02/17/2017 23:00      92    46.5     19.63        48.8      56.1      48.5       2       6      89     107     998    0.00
    02/17/2017 23:10      92    46.5     19.63        48.8      56.1      48.5       1       4      98     142     998    0.00
    02/17/2017 23:20      92    46.5     19.63        48.8      56.1      48.5       2       6     118      65     998    0.00
    02/17/2017 23:30      92    46.4     19.63        48.7      56.1      48.5       3       6     102     136     998    0.00
    02/17/2017 23:40      91    46.3     19.63        48.6      56.1      48.4       4       8      94      93     998    0.00
    02/17/2017 23:50      91    46.1     19.63        48.5      56.1      48.3       5      11      91      97     998    0.00
    02/18/2017 00:00      91    46.1     19.64        48.5      56.1      48.2       4       9      91      83     998    0.01
    02/18/2017 00:10      91    46.1     19.64        48.5      48.7      48.4       5      10      91      74     998    0.00
    02/18/2017 00:20      91    46.0     19.64        48.5      48.7      48.2       5      10      93      86     998    0.00
    02/18/2017 00:30      91    46.0     19.64        48.5      48.7      48.2       5       9      86      76     998    0.00
    02/18/2017 00:40      91    46.0     19.64        48.5      48.7      48.2       5      11      89      73     998    0.00
    02/18/2017 00:50      91    46.0     19.64        48.5      48.7      48.2       4      11      99     118     998    0.00
    02/18/2017 01:00      91    46.1     19.65        48.5      48.7      48.2       4      10      99      94     998    0.01
    02/18/2017 01:10      91    46.1     19.65        48.5      48.7      48.2       5      11      96     109     999    0.00
    02/18/2017 01:20      91    46.1     19.66        48.5      48.7      48.2       5      11      90     114     998    0.01
    02/18/2017 01:30      91    46.0     19.66        48.4      48.7      48.2       5      10      89      74     998    0.00
    02/18/2017 01:40      91    46.0     19.66        48.4      48.7      48.2       3      10      97      90     998    0.00
    02/18/2017 01:50      91    46.0     19.66        48.4      48.7      48.2       5      12      94      81     998    0.00
    02/18/2017 02:00      91    46.0     19.66        48.4      48.7      48.2       4       9      92      98     998    0.00
    02/18/2017 02:10      92    46.0     19.66        48.4      48.7      48.2       4      10      92      94     998    0.00
    02/18/2017 02:20      91    46.0     19.66        48.4      48.7      48.2       4       9      93      92     998    0.00
    02/18/2017 02:30      91    46.0     19.67        48.4      48.7      48.2       3       8      96      92     998    0.01
    02/18/2017 02:40      91    46.1     19.67        48.4      48.7      48.2       4       7      98     100     998    0.00
    02/18/2017 02:50      91    46.1     19.67        48.4      48.7      48.2       5      11      97      73     998    0.00
    02/18/2017 03:00      91    46.0     19.68        48.4      48.7      48.2       4       9      98      97     998    0.01
    02/18/2017 03:10      91    46.0     19.68        48.4      48.7      48.2       4       8      94     109     998    0.00
    02/18/2017 03:20      92    46.0     19.69        48.4      48.7      48.2       4       9      92      95     998    0.01
    02/18/2017 03:30      92    46.1     19.69        48.4      48.7      48.2       5      10      90      92     998    0.00
    02/18/2017 03:40      92    46.1     19.69        48.5      48.7      48.2       5      11      87      87     998    0.00
    02/18/2017 03:50      92    46.2     19.69        48.5      48.7      48.2       4       8      87      88     998    0.00
    02/18/2017 04:00      92    46.2     19.70        48.5      48.7      48.2       5       9      83      86     998    0.01
    02/18/2017 04:10      92    46.3     19.70        48.6      48.8      48.2       5       9      87      66     999    0.00
    02/18/2017 04:20      92    46.4     19.70        48.7      48.8      48.2       3       6      91      97     999    0.00
    02/18/2017 04:30      92    46.4     19.70        48.7      48.8      48.2       4       7      90      92     999    0.00
    02/18/2017 04:40      92    46.4     19.70        48.7      48.9      48.2       4       8      98      81     999    0.00
    02/18/2017 04:50      92    46.4     19.71        48.7      48.9      48.2       3       7      82      78     999    0.01
    02/18/2017 05:00      92    46.4     19.71        48.7      49.0      48.2       4       7      76      97     999    0.00
    02/18/2017 05:10      92    46.4     19.71        48.7      49.0      48.2       4       7      79      64     999    0.00
    02/18/2017 05:20      92    46.5     19.71        48.8      49.0      48.2       3       6      82      69     999    0.00
    02/18/2017 05:30      92    46.5     19.72        48.8      49.0      48.2       2       6      72      91     999    0.01
    02/18/2017 05:40      92    46.5     19.72        48.8      49.0      48.2       2       5      71     118     999    0.00
    02/18/2017 05:50      92    46.5     19.72        48.8      49.0      48.2       3       5      82      81     999    0.00
    02/18/2017 06:00      92    46.6     19.73        48.9      49.0      48.2       3       6      76      81     999    0.01
    02/18/2017 06:10      92    46.6     19.73        48.8      49.0      48.2       2       4      78      83     999    0.00
    02/18/2017 06:20      92    46.5     19.73        48.8      49.0      48.2       3       6      84      59     999    0.00
    02/18/2017 06:30      92    46.5     19.73        48.8      49.0      48.2       2       5      96      90     999    0.00
    02/18/2017 06:40      92    46.5     19.73        48.8      49.0      48.2       2       5      71      74     999    0.00
    02/18/2017 06:50      92    46.5     19.73        48.8      49.0      48.2       1       4      83      77     999    0.00
    02/18/2017 07:00      92    46.5     19.73        48.8      49.0      48.2       2       4      70      82    1000    0.00
    02/18/2017 07:10      92    46.6     19.74        48.8      49.0      48.2       2       4      78      66    1000    0.01
    02/18/2017 07:20      92    46.6     19.74        48.9      49.0      48.2       2       3      77      94    1000    0.00
    02/18/2017 07:30      92    46.7     19.74        49.0      49.2      48.2       2       4      74      55    1000    0.00
    02/18/2017 07:40      92    46.8     19.75        49.0      49.2      48.2       3       5      73      79    1000    0.01
    02/18/2017 07:50      92    46.9     19.75        49.2      49.4      48.2       3       6      77      93    1000    0.00
    02/18/2017 08:00      92    47.0     19.75        49.3      49.5      48.2       2       4      83      72    1000    0.00
    02/18/2017 08:10      92    47.0     19.75        49.3      49.5      48.2       2       4      66       3    1000    0.00
    02/18/2017 08:20      92    47.3     19.75        49.5      49.8      48.2       2       5      84      74    1000    0.00
    02/18/2017 08:30      92    47.4     19.75        49.7      49.9      48.2       2       3      88      46    1001    0.00
    02/18/2017 08:40      92    47.6     19.75        49.9      50.2      48.2       2       4      80      63    1001    0.00
    02/18/2017 08:50      92    47.8     19.75        50.1      50.3      48.2       2       5      82      83    1001    0.00
    02/18/2017 09:00      92    47.8     19.75        50.1      50.4      48.2       3       7      82      95    1001    0.00
    02/18/2017 09:10      92    48.4     19.75        50.7      51.3      48.2       3       7      82      75    1001    0.00
    02/18/2017 09:20      92    49.1     19.75        51.4      52.0      48.2       3       7     101      83    1001    0.00
    02/18/2017 09:30      91    49.2     19.75        51.6      52.0      48.2       2       5      68      81    1001    0.00
    02/18/2017 09:40      91    49.0     19.75        51.5      52.0      48.2       2       5     114     105    1001    0.00
    02/18/2017 09:50      91    49.1     19.75        51.6      52.0      48.2       3       7     133     123    1001    0.00
    02/18/2017 10:00      91    49.0     19.75        51.6      52.3      48.2       3       6     148     132    1001    0.00
    02/18/2017 10:10      90    49.1     19.75        51.8      52.3      48.2       3       6     110      85    1001    0.00
    02/18/2017 10:20      90    49.4     19.75        52.2      52.7      48.2       3       7     111      85    1001    0.00
    02/18/2017 10:30      88    49.7     19.75        52.8      53.2      48.2       3       6     111      99    1001    0.00
    02/18/2017 10:40      87    49.1     19.75        52.7      53.2      48.2       2       5     117      88    1001    0.00
    02/18/2017 10:50      88    48.9     19.75        52.6      53.2      48.2       1       4     149     144    1001    0.00
    02/18/2017 11:00      86    49.4     19.75        53.2      53.6      48.2       2       4     143     194    1001    0.00
    02/18/2017 11:10      85    48.9     19.75        53.1      53.6      48.2       2       4     143     158    1001    0.00
    02/18/2017 11:20      85    48.8     19.75        53.2      54.0      48.2       3       6     114     154    1001    0.00
    02/18/2017 11:30      84    48.8     19.75        53.6      54.0      48.2       2       6     149     167    1001    0.00
    02/18/2017 11:40      82    48.5     19.75        53.5      54.0      48.2       3       5     159     160    1001    0.00
    02/18/2017 11:50      83    48.5     19.75        53.6      54.0      48.2       2       5     154     155    1000    0.00
    02/18/2017 12:00      82    48.0     19.75        53.4      54.0      48.2       2       5     188     163    1001    0.00
    02/18/2017 12:10      83    48.2     19.75        53.4      54.0      48.2       1       3     244     251    1001    0.00
    02/18/2017 12:20      82    48.1     19.75        53.4      54.0      48.2       2       5     195     195    1001    0.00
    02/18/2017 12:30      83    48.4     19.76        53.5      54.0      48.2       2       3     215     195    1001    0.01
    02/18/2017 12:40      84    48.7     19.76        53.5      54.0      48.2       0       3     229     262    1001    0.00
    02/18/2017 12:50      85    48.9     19.76        53.5      54.0      48.2       0       1     251     252    1001    0.00
    02/18/2017 13:00      82    50.1     19.76        54.9      55.9      48.2       1       4     160     191    1001    0.00
    02/18/2017 13:10      76    50.1     19.76        56.7      57.4      48.2       3       7     161     176    1001    0.00
    02/18/2017 13:20      70    49.7     19.76        57.7      58.7      48.2       5       7     178     167    1000    0.00
    02/18/2017 13:30      71    48.6     19.76        58.2      59.1      48.2       5       8     172     165    1000    0.00
    02/18/2017 13:40      67    48.1     19.76        59.0      59.5      48.2       3       6     185     162    1000    0.00
    02/18/2017 13:50      66    48.8     19.76        60.5      61.6      48.2       4       7     163     167    1000    0.00
    02/18/2017 14:00      65    48.0     19.76        60.2      61.6      48.2       4       8     171     147    1000    0.00
    02/18/2017 14:10      66    47.2     19.76        58.6      61.6      48.2       3       6     179     160    1000    0.00
    02/18/2017 14:20      66    46.7     19.76        57.8      61.6      48.2       3       5     204     172    1000    0.00
    02/18/2017 14:30      75    47.5     19.76        56.9      61.6      48.2       4       8     239     269    1001    0.00
    02/18/2017 14:40      83    48.9     19.78        55.1      61.6      48.2       3       8     274     315    1001    0.02
    02/18/2017 14:50      84    49.7     19.79        54.6      61.6      48.2       3       5     278     290    1001    0.01
    02/18/2017 15:00      84    50.3     19.79        54.9      61.6      48.2       2       5     248     245    1001    0.00
    02/18/2017 15:10      83    50.5     19.79        55.5      61.6      48.2       3       5     257     250    1001    0.00
    02/18/2017 15:20      80    49.9     19.79        55.5      61.6      48.2       4       8     282     292    1001    0.00
    02/18/2017 15:30      79    49.2     19.79        55.1      61.6      48.2       3       8     266     250    1001    0.00
    02/18/2017 15:40      75    48.8     19.79        55.7      61.6      48.2       4       9     272     208    1001    0.00
    02/18/2017 15:50      76    48.6     19.79        56.0      61.6      48.2       4       8     283     301    1001    0.00
    02/18/2017 16:00      75    48.5     19.79        56.2      61.6      48.2       4       8     278     259    1001    0.00
    02/18/2017 16:10      74    48.1     19.79        56.0      61.6      48.2       5       9     279     246    1001    0.00
    02/18/2017 16:20      72    47.2     19.79        55.6      61.6      48.2       5      10     266     246    1001    0.00
    02/18/2017 16:30      72    47.1     19.79        56.1      61.6      48.2       5      11     266     278    1001    0.00
    02/18/2017 16:40      72    47.0     19.79        55.9      61.6      48.2       5       9     264     257    1001    0.00
    02/18/2017 16:50      74    47.2     19.79        55.6      61.6      48.2       4      10     269     247    1001    0.00
    02/18/2017 17:00      74    47.2     19.79        55.5      61.6      48.2       4       8     280     299    1001    0.00
    02/18/2017 17:10      73    47.0     19.79        55.4      61.6      48.2       4       9     267     247    1001    0.00
    02/18/2017 17:20      72    46.7     19.79        55.6      61.6      48.2       3       9     264     249    1001    0.00
    02/18/2017 17:30      73    46.9     19.79        55.6      61.6      48.2       4       8     264     267    1001    0.00
    02/18/2017 17:40      74    47.0     19.79        55.1      61.6      48.2       4       8     268     240    1001    0.00
    02/18/2017 17:50      76    46.9     19.79        54.6      61.6      48.2       4       6     259     252    1002    0.00
    02/18/2017 18:00      77    47.0     19.79        54.1      61.6      48.2       3       7     254     254    1002    0.00
    02/18/2017 18:10      77    46.8     19.79        53.9      61.6      48.2       4       7     253     256    1002    0.00
    02/18/2017 18:20      78    46.8     19.79        53.7      61.6      48.2       3       5     252     264    1002    0.00
    02/18/2017 18:30      79    46.9     19.79        53.4      61.6      48.2       2       4     266     260    1002    0.00
    02/18/2017 18:40      80    46.9     19.79        53.0      61.6      48.2       3       4     257     234    1003    0.00
    02/18/2017 18:50      80    46.9     19.79        52.8      61.6      48.2       3       6     248     255    1003    0.00
    02/18/2017 19:00      80    46.7     19.79        52.8      61.6      48.2       3       5     249     234    1003    0.00
    02/18/2017 19:10      80    46.7     19.79        52.6      61.6      48.2       2       4     270     247    1003    0.00
    02/18/2017 19:20      81    46.4     19.79        52.3      61.6      48.2       2       4     249     259    1003    0.00
    02/18/2017 19:30      81    46.5     19.79        52.2      61.6      48.2       3       5     256     249    1003    0.00
    02/18/2017 19:40      82    46.4     19.79        52.0      61.6      48.2       3       5     251     255    1003    0.00
    02/18/2017 19:50      82    46.5     19.79        51.8      61.6      48.2       2       4     255     255    1003    0.00
    02/18/2017 20:00      83    46.1     19.79        51.2      61.6      48.2       1       2     223     243    1004    0.00
    02/18/2017 20:10      84    46.0     19.79        50.9      61.6      48.2       1       3     220     224    1004    0.00
    02/18/2017 20:20      84    46.0     19.79        50.7      61.6      48.2       2       3     237     288    1004    0.00
    02/18/2017 20:30      84    46.1     19.79        50.6      61.6      48.2       0       2     243     253    1004    0.00
    02/18/2017 20:40      85    45.9     19.79        50.4      61.6      48.2       0       2     216     203    1005    0.00
    02/18/2017 20:50      85    45.8     19.79        50.1      61.6      48.2       0       0     210     210    1005    0.00
    02/18/2017 21:00      86    45.8     19.79        49.9      61.6      48.2       0       0       0     209    1005    0.00
    02/18/2017 21:10      86    45.5     19.79        49.4      61.6      48.2       0       2     237     252    1005    0.00
    02/18/2017 21:20      88    45.0     19.79        48.7      61.6      48.2       0       2     348      10    1005    0.00
    02/18/2017 21:30      88    45.6     19.79        49.1      61.6      48.2       0       1     353     348    1005    0.00
    02/18/2017 21:40      88    45.1     19.79        48.6      61.6      48.2       1       2     290     250    1005    0.00
    02/18/2017 21:50      88    45.3     19.79        48.6      61.6      48.2       0       2     270     336    1005    0.00
    02/18/2017 22:00      89    45.4     19.79        48.6      61.6      48.2       0       3     312     247    1005    0.00
    02/18/2017 22:10      89    45.3     19.79        48.4      61.6      48.1       2       3     272     255    1006    0.00
    02/18/2017 22:20      89    45.4     19.79        48.5      61.6      48.1       0       2     301     292    1006    0.00
    02/18/2017 22:30      89    45.4     19.79        48.4      61.6      48.1       0       2     329     342    1006    0.00
    02/18/2017 22:40      89    44.9     19.79        48.0      61.6      47.6       0       2     277     246    1006    0.00
    02/18/2017 22:50      90    44.9     19.79        47.9      61.6      47.6       0       1     271     246    1006    0.00
    02/18/2017 23:00      90    45.4     19.79        48.3      61.6      47.6       0       2     226     207    1006    0.00
    02/18/2017 23:10      90    45.4     19.79        48.3      61.6      47.6       0       2     209     211    1006    0.00
    02/18/2017 23:20      90    45.5     19.79        48.4      61.6      47.6       0       1     221     218    1006    0.00
    02/18/2017 23:30      90    45.4     19.79        48.3      61.6      47.6       0       0     244     244    1006    0.00
    02/18/2017 23:40      90    45.0     19.79        47.9      61.6      47.6       0       2     225     213    1007    0.00
    02/18/2017 23:50      90    44.9     19.79        47.7      61.6      47.5       0       1     267     267    1007    0.00
    02/19/2017 00:00      90    44.8     19.79        47.6      61.6      47.5       0       1     335     321    1007    0.00
    02/19/2017 00:10      90    44.8     19.79        47.6      48.0      47.2       0       1     313     325    1007    0.00
    02/19/2017 00:20      90    44.5     19.79        47.3      48.0      47.0       0       1     325     325    1007    0.00
    02/19/2017 00:30      90    44.1     19.79        46.9      48.0      46.6       0       1     190     193    1007    0.00
    02/19/2017 00:40      90    43.8     19.79        46.6      48.0      46.4       0       0       0     174    1007    0.00
    02/19/2017 00:50      90    44.2     19.79        46.9      48.0      46.4       0       2     331     342    1007    0.00
    02/19/2017 01:00      90    44.4     19.79        47.1      48.0      46.4       1       2     342     352    1007    0.00
    02/19/2017 01:10      90    44.1     19.79        46.8      48.0      46.1       0       1     360       3    1007    0.00
    02/19/2017 01:20      90    43.3     19.79        46.0      48.0      45.8       0       0       0     355    1007    0.00
    02/19/2017 01:30      91    43.5     19.79        46.1      48.0      45.8       0       0       6       7    1007    0.00
    02/19/2017 01:40      90    43.3     19.79        45.9      48.0      45.6       0       0      11      11    1007    0.00
    02/19/2017 01:50      90    42.6     19.79        45.2      48.0      44.9       0       2     234     217    1007    0.00
    02/19/2017 02:00      91    42.6     19.79        45.2      48.0      44.9       0       2     224     200    1007    0.00
    02/19/2017 02:10      91    42.5     19.79        45.1      48.0      44.9       0       2     196     202    1007    0.00
    02/19/2017 02:20      91    43.0     19.79        45.5      48.0      44.9       0       2     251     260    1007    0.00
    02/19/2017 02:30      91    42.8     19.79        45.3      48.0      44.9       0       0     219     219    1008    0.00
    02/19/2017 02:40      91    42.7     19.79        45.3      48.0      44.9       0       0     282     282    1008    0.00
    02/19/2017 02:50      91    42.6     19.79        45.2      48.0      44.9       0       0       0     282    1008    0.00
    02/19/2017 03:00      91    43.4     19.79        45.9      48.0      44.9       0       0     360       2    1008    0.00
    02/19/2017 03:10      91    44.1     19.79        46.5      48.0      44.9       0       1     318     344    1008    0.00
    02/19/2017 03:20      91    44.1     19.79        46.6      48.0      44.9       0       2     181     158    1008    0.00
    02/19/2017 03:30      91    44.3     19.79        46.7      48.0      44.9       1       2     283     301    1008    0.00
    02/19/2017 03:40      91    44.5     19.79        46.9      48.0      44.9       0       2     299     287    1008    0.00
    02/19/2017 03:50      91    44.6     19.79        47.0      48.0      44.9       0       2     312     332    1008    0.00
    02/19/2017 04:00      91    44.8     19.79        47.3      48.0      44.9       1       2     347     325    1008    0.00
    02/19/2017 04:10      91    45.2     19.79        47.6      48.0      44.9       0       2      14      29    1008    0.00
    02/19/2017 04:20      91    45.5     19.79        48.0      48.3      44.9       1       4      11       0    1008    0.00
    02/19/2017 04:30      91    45.8     19.79        48.2      48.5      44.9       2       4      10     324    1009    0.00
    02/19/2017 04:40      91    46.0     19.79        48.5      48.7      44.9       1       3       2      28    1009    0.00
    02/19/2017 04:50      91    46.2     19.79        48.8      49.0      44.9       2       4     352       0    1009    0.00
    02/19/2017 05:00      91    46.4     19.79        49.0      49.1      44.9       1       2       2      25    1009    0.00
    02/19/2017 05:10      91    46.6     19.79        49.2      49.5      44.9       0       2     353     355    1009    0.00
    02/19/2017 05:20      90    46.8     19.79        49.4      49.6      44.9       1       2     355     354    1009    0.00
    02/19/2017 05:30      90    46.8     19.79        49.5      49.8      44.9       0       1     353     351    1009    0.00
    02/19/2017 05:40      90    46.9     19.79        49.7      49.8      44.9       0       0       0     355    1009    0.00
    02/19/2017 05:50      90    46.8     19.79        49.6      49.8      44.9       0       0     358     355    1009    0.00
    02/19/2017 06:00      90    46.7     19.79        49.6      49.8      44.9       0       0       0       0    1009    0.00
    02/19/2017 06:10      90    46.8     19.79        49.7      49.9      44.9       0       3     168     141    1009    0.00
    02/19/2017 06:20      90    46.7     19.79        49.6      49.9      44.9       1       3     165     156    1009    0.00
    02/19/2017 06:30      89    46.6     19.79        49.5      49.9      44.9       1       2     157     155    1009    0.00
    02/19/2017 06:40      90    46.4     19.79        49.4      49.9      44.9       1       3     161     151    1010    0.00
    02/19/2017 06:50      89    46.3     19.79        49.3      49.9      44.9       0       2     160     163    1010    0.00
    02/19/2017 07:00      89    46.3     19.79        49.2      49.9      44.9       0       2     195     195    1010    0.00
    02/19/2017 07:10      89    46.3     19.79        49.2      49.9      44.9       0       2     219     247    1011    0.00
    02/19/2017 07:20      89    46.3     19.79        49.3      49.9      44.9       0       0       0     189    1011    0.00
    02/19/2017 07:30      89    46.4     19.79        49.4      49.9      44.9       0       1     283     285    1011    0.00
    02/19/2017 07:40      89    46.5     19.79        49.5      49.9      44.9       0       1     277     264    1011    0.00
    02/19/2017 07:50      89    46.8     19.79        49.8      50.1      44.9       0       1     260     258    1011    0.00
    02/19/2017 08:00      89    47.1     19.79        50.1      50.4      44.9       0       0     266     261    1011    0.00
    02/19/2017 08:10      89    47.4     19.79        50.4      50.7      44.9       0       1      15     355    1011    0.00
    02/19/2017 08:20      89    47.7     19.79        50.8      51.3      44.9       1       2      63      54    1011    0.00
    02/19/2017 08:30      88    48.1     19.79        51.4      51.7      44.9       1       4      89     104    1011    0.00
    02/19/2017 08:40      87    48.2     19.79        51.8      52.1      44.9       1       3     112     102    1012    0.00